Terminal Aerodrome Forecast
Issued by NWS

Home | Current Version | Previous Version | Graphics & Text | Print | Product List | Glossary On
Versions: 1 2 3 4 5 6 7 8 9 10 11 12 13 14 15 16 17 18
000
FTUS43 KABR 271500 AAA
TAFATY
TAF AMD
KATY 271500Z 2715/2812 36011KT P6SM BKN018
      TEMPO 2717/2718 SCT018
     FM271800 02015KT P6SM BKN150
     FM280200 VRB04KT P6SM BKN200=

USA.gov is the U.S. government's official web portal to all federal, state and local government web resources and services.